createdAt,value
2017-08-26T00:00:14.819Z,95.64
2017-08-26T00:01:14.801Z,95.84
2017-08-26T00:02:14.786Z,96.03
2017-08-26T00:03:14.779Z,95.89
2017-08-26T00:04:14.759Z,95.93
2017-08-26T00:05:14.753Z,96.03
2017-08-26T00:06:14.428Z,95.74
2017-08-26T00:07:14.722Z,95.64
2017-08-26T00:08:14.712Z,95.84
2017-08-26T00:09:14.383Z,95.64
2017-08-26T00:10:14.373Z,95.36
2017-08-26T00:11:14.660Z,96.03
2017-08-26T00:12:14.662Z,95.74
2017-08-26T00:13:14.633Z,96.03
2017-08-26T00:14:14.622Z,95.64
2017-08-26T00:15:14.609Z,95.84
2017-08-26T00:16:14.608Z,95.64
2017-08-26T00:17:14.580Z,96.03
2017-08-26T00:18:14.570Z,96.03
2017-08-26T00:19:14.560Z,95.54
2017-08-26T00:20:14.541Z,95.84
2017-08-26T00:21:14.520Z,96.22
2017-08-26T00:22:14.511Z,96.03
2017-08-26T00:23:14.494Z,96.22
2017-08-26T00:24:14.481Z,96.61
2017-08-26T00:25:14.472Z,96.51
2017-08-26T00:26:14.467Z,96.66
2017-08-26T00:27:14.441Z,96.32
2017-08-26T00:28:14.433Z,96.89
2017-08-26T00:29:14.417Z,96.89
2017-08-26T00:30:14.427Z,96.51
2017-08-26T00:31:14.402Z,96.32
2017-08-26T00:32:14.390Z,96.41
2017-08-26T00:33:14.362Z,96.41
2017-08-26T00:34:14.350Z,96.8
2017-08-26T00:35:14.352Z,97.33
2017-08-26T00:36:14.320Z,97.42
2017-08-26T00:37:14.310Z,97.14
2017-08-26T00:38:13.979Z,97.33
2017-08-26T00:39:14.289Z,97.33
2017-08-26T00:40:14.274Z,97.33
2017-08-26T00:41:14.254Z,97.14
2017-08-26T00:42:14.250Z,97.72
2017-08-26T00:43:14.236Z,96.75
2017-08-26T00:44:14.205Z,96.85
2017-08-26T00:45:14.193Z,97.14
2017-08-26T00:46:14.185Z,97.62
2017-08-26T00:47:13.865Z,97.62
2017-08-26T00:48:14.158Z,97.14
2017-08-26T00:49:14.139Z,97.14
2017-08-26T00:50:14.119Z,97.52
2017-08-26T00:51:13.801Z,97.42
2017-08-26T00:52:14.098Z,97.62
2017-08-26T00:53:14.079Z,97.52
2017-08-26T00:54:14.068Z,97.62
2017-08-26T00:55:14.062Z,97.62
2017-08-26T00:56:13.728Z,98.1
2017-08-26T00:57:14.049Z,97.81
2017-08-26T00:58:13.703Z,97.91
2017-08-26T00:59:13.999Z,98.1
2017-08-26T01:00:13.990Z,98.1
2017-08-26T01:01:13.670Z,98.1
2017-08-26T01:02:13.966Z,98.1
2017-08-26T01:03:13.944Z,97.91
2017-08-26T01:04:13.938Z,97.62
2017-08-26T01:05:13.919Z,97.62
2017-08-26T01:06:13.899Z,98
2017-08-26T01:07:13.888Z,97.72
2017-08-26T01:08:13.879Z,97.24
2017-08-26T01:09:13.547Z,97.62
2017-08-26T01:10:13.852Z,98.1
2017-08-26T01:11:13.522Z,97.91
2017-08-26T01:12:13.519Z,98.1
2017-08-26T01:13:13.808Z,97.91
2017-08-26T01:14:13.788Z,98.1
2017-08-26T01:15:13.788Z,98.29
2017-08-26T01:16:13.450Z,98
2017-08-26T01:17:13.752Z,98.29
2017-08-26T01:18:13.737Z,98
2017-08-26T01:19:13.720Z,98.1
2017-08-26T01:20:13.719Z,98.77
2017-08-26T01:21:13.389Z,98
2017-08-26T01:22:13.518Z,98.29
2017-08-26T01:23:13.668Z,98.29
2017-08-26T01:24:13.377Z,98
2017-08-26T01:25:13.641Z,98.58
2017-08-26T01:26:13.617Z,98
2017-08-26T01:27:13.310Z,98.1
2017-08-26T01:28:13.598Z,97.91
2017-08-26T01:29:13.577Z,97.72
2017-08-26T01:30:13.570Z,97.81
2017-08-26T01:31:13.250Z,97.81
2017-08-26T01:32:13.288Z,97.91
2017-08-26T01:33:13.520Z,98.1
2017-08-26T01:34:13.526Z,98.29
2017-08-26T01:35:13.500Z,98.1
2017-08-26T01:36:13.291Z,98.58
2017-08-26T01:37:13.155Z,98.68
2017-08-26T01:38:13.527Z,98.1
2017-08-26T01:39:13.454Z,98.2
2017-08-26T01:40:13.516Z,98
2017-08-26T01:41:13.425Z,98.29
2017-08-26T01:42:13.478Z,98.77
2017-08-26T01:43:13.474Z,98.68
2017-08-26T01:44:13.477Z,98.39
2017-08-26T01:45:13.357Z,98.68
2017-08-26T01:46:13.429Z,98.58
2017-08-26T01:47:13.485Z,98.77
2017-08-26T01:48:13.409Z,98.97
2017-08-26T01:49:13.385Z,98.87
2017-08-26T01:50:13.008Z,98.77
2017-08-26T01:51:13.297Z,98.97
2017-08-26T01:52:13.277Z,99.45
2017-08-26T01:53:12.941Z,99.26
2017-08-26T01:54:13.241Z,99.07
2017-08-26T01:55:13.219Z,98.77
2017-08-26T01:56:12.898Z,98.77
2017-08-26T01:57:13.372Z,98.68
2017-08-26T01:58:13.188Z,98.97
2017-08-26T01:59:13.166Z,98.97
2017-08-26T02:00:12.838Z,98.82
2017-08-26T02:01:13.147Z,98.68
2017-08-26T02:02:13.117Z,98.72
2017-08-26T02:03:13.100Z,99.26
2017-08-26T02:04:13.096Z,99.35
2017-08-26T02:05:12.768Z,99.26
2017-08-26T02:06:12.758Z,99.26
2017-08-26T02:07:13.058Z,99.16
2017-08-26T02:08:13.044Z,99.26
2017-08-26T02:09:13.028Z,99.35
2017-08-26T02:10:13.003Z,99.55
2017-08-26T02:11:12.999Z,99.26
2017-08-26T02:12:12.663Z,99.16
2017-08-26T02:13:12.966Z,99.69
2017-08-26T02:14:12.950Z,99.55
2017-08-26T02:15:12.951Z,99.98
2017-08-26T02:16:12.613Z,99.99
2017-08-26T02:17:12.905Z,99.99
2017-08-26T02:18:12.897Z,99.99
2017-08-26T02:19:12.887Z,99.99
2017-08-26T02:20:12.557Z,99.69
2017-08-26T02:21:12.546Z,99.99
2017-08-26T02:22:12.522Z,99.98
2017-08-26T02:23:12.828Z,99.84
2017-08-26T02:24:12.810Z,99.84
2017-08-26T02:25:12.797Z,99.98
2017-08-26T02:26:12.479Z,99.99
2017-08-26T02:27:12.766Z,99.79
2017-08-26T02:28:12.446Z,99.99
2017-08-26T02:29:12.747Z,99.99
2017-08-26T02:30:12.417Z,99.99
2017-08-26T02:31:12.716Z,99.99
2017-08-26T02:32:12.700Z,99.99
2017-08-26T02:33:12.369Z,99.99
2017-08-26T02:34:12.362Z,99.99
2017-08-26T02:35:12.351Z,99.99
2017-08-26T02:36:12.339Z,99.74
2017-08-26T02:37:12.627Z,99.74
2017-08-26T02:38:12.618Z,99.55
2017-08-26T02:39:12.295Z,99.99
2017-08-26T02:40:12.620Z,99.99
2017-08-26T02:41:12.587Z,99.74
2017-08-26T02:42:12.548Z,99.99
2017-08-26T02:43:12.560Z,99.99
2017-08-26T02:44:12.226Z,99.99
2017-08-26T02:45:12.537Z,99.84
2017-08-26T02:46:12.199Z,99.84
2017-08-26T02:47:12.175Z,99.99
2017-08-26T02:48:12.169Z,99.84
2017-08-26T02:49:12.150Z,99.99
2017-08-26T02:50:12.458Z,99.74
2017-08-26T02:51:12.121Z,99.99
2017-08-26T02:52:12.413Z,99.84
2017-08-26T02:53:12.419Z,99.99
2017-08-26T02:54:12.397Z,99.99
2017-08-26T02:55:12.067Z,99.99
2017-08-26T02:56:12.369Z,99.99
2017-08-26T02:57:12.349Z,99.99
2017-08-26T02:58:12.028Z,99.99
2017-08-26T02:59:12.318Z,99.99
2017-08-26T03:00:12.311Z,99.99
2017-08-26T03:01:11.996Z,99.99
2017-08-26T03:02:11.965Z,99.99
2017-08-26T03:03:11.958Z,99.99
2017-08-26T03:04:11.941Z,99.99
2017-08-26T03:05:12.250Z,99.99
2017-08-26T03:06:12.219Z,99.99
2017-08-26T03:07:12.020Z,99.99
2017-08-26T03:08:12.196Z,99.99
2017-08-26T03:09:12.309Z,99.99
2017-08-26T03:10:12.161Z,99.99
2017-08-26T03:11:12.157Z,99.99
2017-08-26T03:12:11.830Z,99.99
2017-08-26T03:13:12.148Z,99.99
2017-08-26T03:14:11.801Z,99.99
2017-08-26T03:15:12.216Z,99.99
2017-08-26T03:16:12.079Z,99.99
2017-08-26T03:17:12.070Z,99.99
2017-08-26T03:18:12.057Z,99.99
2017-08-26T03:19:12.042Z,99.99
2017-08-26T03:20:12.029Z,99.99
2017-08-26T03:21:12.073Z,99.99
2017-08-26T03:22:11.999Z,99.99
2017-08-26T03:23:11.992Z,99.99
2017-08-26T03:24:11.973Z,99.99
2017-08-26T03:25:11.972Z,99.99
2017-08-26T03:26:11.948Z,99.99
2017-08-26T03:27:11.942Z,99.99
2017-08-26T03:28:11.940Z,99.99
2017-08-26T03:29:11.926Z,99.99
2017-08-26T03:30:11.892Z,99.99
2017-08-26T03:31:11.969Z,99.99
2017-08-26T03:32:11.861Z,99.99
2017-08-26T03:33:11.846Z,99.99
2017-08-26T03:34:11.832Z,99.99
2017-08-26T03:35:11.520Z,99.99
2017-08-26T03:36:11.495Z,99.99
2017-08-26T03:37:11.485Z,99.99
2017-08-26T03:38:11.455Z,99.99
2017-08-26T03:39:11.850Z,99.99
2017-08-26T03:40:11.426Z,99.99
2017-08-26T03:41:11.751Z,99.99
2017-08-26T03:42:11.776Z,99.99
2017-08-26T03:43:11.742Z,99.99
2017-08-26T03:44:11.686Z,99.99
2017-08-26T03:45:11.663Z,99.99
2017-08-26T03:46:11.353Z,99.99
2017-08-26T03:47:11.658Z,99.99
2017-08-26T03:48:11.629Z,99.99
2017-08-26T03:49:11.610Z,99.99
2017-08-26T03:50:11.612Z,99.99
2017-08-26T03:51:11.590Z,99.99
2017-08-26T03:52:11.662Z,99.99
2017-08-26T03:53:11.556Z,99.99
2017-08-26T03:54:11.635Z,99.99
2017-08-26T03:55:11.529Z,99.99
2017-08-26T03:56:11.526Z,99.99
2017-08-26T03:57:11.190Z,99.99
2017-08-26T03:58:11.494Z,99.99
2017-08-26T03:59:11.478Z,99.99
2017-08-26T04:00:11.150Z,99.99
2017-08-26T04:01:11.447Z,99.99
2017-08-26T04:02:11.430Z,99.99
2017-08-26T04:03:11.419Z,99.99
2017-08-26T04:04:11.091Z,99.99
2017-08-26T04:05:11.381Z,99.99
2017-08-26T04:06:11.377Z,99.99
2017-08-26T04:07:11.047Z,99.99
2017-08-26T04:08:11.348Z,99.99
2017-08-26T04:09:11.019Z,99.99
2017-08-26T04:10:11.319Z,99.99
2017-08-26T04:11:11.311Z,99.99
2017-08-26T04:12:10.988Z,99.99
2017-08-26T04:13:10.970Z,99.99
2017-08-26T04:14:11.254Z,99.99
2017-08-26T04:15:10.941Z,99.99
2017-08-26T04:16:10.922Z,99.99
2017-08-26T04:17:11.239Z,99.99
2017-08-26T04:18:11.200Z,99.99
2017-08-26T04:19:10.883Z,99.99
2017-08-26T04:20:10.870Z,99.99
2017-08-26T04:21:11.170Z,99.99
2017-08-26T04:22:11.153Z,99.99
2017-08-26T04:23:11.133Z,99.99
2017-08-26T04:24:11.134Z,99.99
2017-08-26T04:25:10.791Z,99.99
2017-08-26T04:26:11.088Z,99.99
2017-08-26T04:27:11.090Z,99.99
2017-08-26T04:28:11.057Z,99.99
2017-08-26T04:29:11.053Z,99.99
2017-08-26T04:30:10.720Z,99.99
2017-08-26T04:31:10.711Z,99.99
2017-08-26T04:32:10.691Z,99.99
2017-08-26T04:33:10.682Z,99.99
2017-08-26T04:34:10.980Z,99.99
2017-08-26T04:35:10.648Z,99.99
2017-08-26T04:36:10.950Z,99.99
2017-08-26T04:37:10.924Z,99.99
2017-08-26T04:38:10.920Z,99.99
2017-08-26T04:39:10.912Z,99.99
2017-08-26T04:40:10.881Z,99.99
2017-08-26T04:41:10.570Z,99.99
2017-08-26T04:42:10.549Z,99.99
2017-08-26T04:43:10.840Z,99.99
2017-08-26T04:44:10.519Z,99.99
2017-08-26T04:45:10.814Z,99.99
2017-08-26T04:46:10.803Z,99.99
2017-08-26T04:47:10.481Z,99.99
2017-08-26T04:48:10.774Z,99.99
2017-08-26T04:49:10.454Z,99.99
2017-08-26T04:50:10.737Z,99.99
2017-08-26T04:51:10.731Z,99.99
2017-08-26T04:52:10.733Z,99.99
2017-08-26T04:53:10.701Z,99.99
2017-08-26T04:54:10.690Z,99.99
2017-08-26T04:55:10.673Z,99.99
2017-08-26T04:56:10.671Z,99.99
2017-08-26T04:57:10.651Z,99.99
2017-08-26T04:58:10.320Z,99.99
2017-08-26T04:59:10.614Z,99.99
2017-08-26T05:00:10.610Z,99.99
2017-08-26T05:01:10.275Z,99.99
2017-08-26T05:02:10.587Z,99.99
2017-08-26T05:03:10.551Z,99.99
2017-08-26T05:04:10.552Z,99.99
2017-08-26T05:05:10.526Z,99.99
2017-08-26T05:06:10.511Z,99.99
2017-08-26T05:07:10.511Z,99.99
2017-08-26T05:08:10.488Z,99.99
2017-08-26T05:09:10.472Z,99.99
2017-08-26T05:10:10.197Z,99.99
2017-08-26T05:11:10.439Z,99.99
2017-08-26T05:12:10.453Z,99.99
2017-08-26T05:13:10.102Z,99.99
2017-08-26T05:14:10.391Z,99.99
2017-08-26T05:15:10.384Z,99.99
2017-08-26T05:16:10.061Z,99.99
2017-08-26T05:17:10.038Z,99.99
2017-08-26T05:18:10.400Z,99.99
2017-08-26T05:19:10.021Z,99.99
2017-08-26T05:20:10.007Z,99.99
2017-08-26T05:21:10.301Z,99.99
2017-08-26T05:22:10.277Z,99.99
2017-08-26T05:23:09.961Z,99.99
2017-08-26T05:24:09.940Z,99.99
2017-08-26T05:25:10.240Z,99.99
2017-08-26T05:26:10.224Z,99.99
2017-08-26T05:27:09.905Z,99.99
2017-08-26T05:28:10.200Z,99.99
2017-08-26T05:29:09.872Z,99.99
2017-08-26T05:30:09.854Z,99.99
2017-08-26T05:31:10.150Z,99.99
2017-08-26T05:32:09.833Z,99.99
2017-08-26T05:33:10.121Z,99.99
2017-08-26T05:34:10.110Z,99.99
2017-08-26T05:35:10.104Z,99.99
2017-08-26T05:36:09.772Z,99.99
2017-08-26T05:37:09.760Z,99.99
2017-08-26T05:38:10.049Z,99.99
2017-08-26T05:39:10.031Z,99.99
2017-08-26T05:40:09.714Z,99.99
2017-08-26T05:41:10.011Z,99.99
2017-08-26T05:42:09.683Z,99.99
2017-08-26T05:43:09.673Z,99.99
2017-08-26T05:44:09.663Z,99.99
2017-08-26T05:45:09.954Z,99.99
2017-08-26T05:46:09.632Z,99.99
2017-08-26T05:47:09.928Z,99.99
2017-08-26T05:48:09.602Z,99.99
2017-08-26T05:49:09.897Z,99.99
2017-08-26T05:50:09.876Z,99.99
2017-08-26T05:51:09.864Z,99.99
2017-08-26T05:52:09.855Z,99.99
2017-08-26T05:53:09.536Z,99.99
2017-08-26T05:54:09.839Z,99.99
2017-08-26T05:55:09.503Z,99.99
2017-08-26T05:56:09.794Z,99.99
2017-08-26T05:57:09.474Z,99.99
2017-08-26T05:58:09.772Z,99.99
2017-08-26T05:59:09.443Z,99.99
2017-08-26T06:00:09.434Z,99.99
2017-08-26T06:01:09.734Z,99.99
2017-08-26T06:02:09.403Z,99.99
2017-08-26T06:03:09.692Z,99.99
2017-08-26T06:04:09.673Z,99.99
2017-08-26T06:05:09.663Z,99.99
2017-08-26T06:06:09.342Z,99.99
2017-08-26T06:07:09.431Z,99.99
2017-08-26T06:08:09.633Z,99.99
2017-08-26T06:09:09.603Z,99.99
2017-08-26T06:10:09.591Z,99.99
2017-08-26T06:11:09.577Z,99.99
2017-08-26T06:12:09.577Z,99.99
2017-08-26T06:13:09.556Z,99.99
2017-08-26T06:14:09.543Z,99.99
2017-08-26T06:15:09.529Z,99.99
2017-08-26T06:16:09.512Z,99.99
2017-08-26T06:17:09.496Z,99.99
2017-08-26T06:18:09.484Z,99.99
2017-08-26T06:19:09.502Z,99.99
2017-08-26T06:20:09.456Z,99.99
2017-08-26T06:21:09.441Z,99.99
2017-08-26T06:22:09.420Z,99.99
2017-08-26T06:23:09.401Z,99.99
2017-08-26T06:24:09.092Z,99.99
2017-08-26T06:25:09.387Z,99.99
2017-08-26T06:26:09.361Z,99.99
2017-08-26T06:27:09.361Z,99.99
2017-08-26T06:28:09.022Z,99.99
2017-08-26T06:29:09.007Z,99.99
2017-08-26T06:30:09.312Z,99.99
2017-08-26T06:31:09.282Z,99.99
2017-08-26T06:32:09.291Z,99.99
2017-08-26T06:33:09.275Z,99.99
2017-08-26T06:34:09.283Z,99.99
2017-08-26T06:35:08.929Z,99.99
2017-08-26T06:36:09.223Z,99.99
2017-08-26T06:37:09.224Z,99.99
2017-08-26T06:38:09.193Z,99.99
2017-08-26T06:39:09.181Z,99.99
2017-08-26T06:40:08.864Z,99.99
2017-08-26T06:41:09.151Z,99.99
2017-08-26T06:42:09.139Z,99.99
2017-08-26T06:43:09.118Z,99.99
2017-08-26T06:44:09.111Z,99.99
2017-08-26T06:45:09.092Z,99.99
2017-08-26T06:46:09.089Z,99.99
2017-08-26T06:47:09.064Z,99.99
2017-08-26T06:48:09.052Z,99.99
2017-08-26T06:49:09.041Z,99.99
2017-08-26T06:50:09.032Z,99.99
2017-08-26T06:51:09.003Z,99.99
2017-08-26T06:52:08.995Z,99.99
2017-08-26T06:53:08.676Z,99.99
2017-08-26T06:54:08.960Z,99.99
2017-08-26T06:55:08.960Z,99.99
2017-08-26T06:56:08.632Z,99.99
2017-08-26T06:57:08.611Z,99.99
2017-08-26T06:58:08.910Z,99.99
2017-08-26T06:59:08.900Z,99.99
2017-08-26T07:00:08.901Z,99.99
2017-08-26T07:01:08.882Z,99.99
2017-08-26T07:02:08.892Z,99.99
2017-08-26T07:03:08.539Z,99.99
2017-08-26T07:04:08.836Z,99.99
2017-08-26T07:05:08.821Z,99.99
2017-08-26T07:06:08.800Z,99.99
2017-08-26T07:07:08.793Z,99.99
2017-08-26T07:08:08.472Z,99.99
2017-08-26T07:09:08.444Z,99.99
2017-08-26T07:10:08.751Z,99.99
2017-08-26T07:11:08.743Z,99.99
2017-08-26T07:12:08.430Z,99.99
2017-08-26T07:13:08.402Z,99.99
2017-08-26T07:14:08.715Z,99.99
2017-08-26T07:15:08.683Z,99.99
2017-08-26T07:16:08.682Z,99.99
2017-08-26T07:17:08.667Z,99.99
2017-08-26T07:18:08.658Z,99.99
2017-08-26T07:19:08.642Z,99.99
2017-08-26T07:20:08.620Z,99.99
2017-08-26T07:21:08.605Z,99.99
2017-08-26T07:22:08.620Z,99.99
2017-08-26T07:23:08.603Z,99.99
2017-08-26T07:24:08.571Z,99.99
2017-08-26T07:25:08.246Z,99.99
2017-08-26T07:26:08.548Z,99.99
2017-08-26T07:27:08.531Z,99.99
2017-08-26T07:28:08.520Z,99.99
2017-08-26T07:29:08.523Z,99.99
2017-08-26T07:30:08.502Z,99.99
2017-08-26T07:31:08.177Z,99.99
2017-08-26T07:32:08.162Z,99.99
2017-08-26T07:33:08.461Z,99.99
2017-08-26T07:34:08.445Z,99.99
2017-08-26T07:35:08.124Z,99.99
2017-08-26T07:36:08.430Z,99.99
2017-08-26T07:37:08.101Z,99.99
2017-08-26T07:38:08.413Z,99.99
2017-08-26T07:39:08.083Z,99.99
2017-08-26T07:40:08.372Z,99.99
2017-08-26T07:41:08.350Z,99.99
2017-08-26T07:42:08.359Z,99.99
2017-08-26T07:43:08.331Z,99.99
2017-08-26T07:44:08.327Z,99.99
2017-08-26T07:45:08.001Z,99.99
2017-08-26T07:46:08.018Z,99.99
2017-08-26T07:47:08.270Z,99.99
2017-08-26T07:48:08.292Z,99.99
2017-08-26T07:49:08.255Z,99.99
2017-08-26T07:50:08.263Z,99.99
2017-08-26T07:51:08.231Z,99.99
2017-08-26T07:52:07.913Z,99.99
2017-08-26T07:53:08.204Z,99.99
2017-08-26T07:54:07.891Z,99.99
2017-08-26T07:55:08.191Z,99.99
2017-08-26T07:56:08.260Z,99.99
2017-08-26T07:57:08.164Z,99.99
2017-08-26T07:58:07.843Z,99.99
2017-08-26T07:59:08.187Z,99.99
2017-08-26T08:00:08.133Z,99.26
2017-08-26T08:01:08.223Z,97.52
2017-08-26T08:02:08.102Z,95.44
2017-08-26T08:03:08.141Z,92.72
2017-08-26T08:04:07.783Z,91.41
2017-08-26T08:05:08.072Z,90.16
2017-08-26T08:06:07.801Z,88.98
2017-08-26T08:07:08.064Z,88.54
2017-08-26T08:08:08.072Z,87.96
2017-08-26T08:09:08.077Z,86.64
2017-08-26T08:10:08.034Z,85.9
2017-08-26T08:11:07.703Z,85.75
2017-08-26T08:12:08.011Z,85.07
2017-08-26T08:13:08.001Z,85.46
2017-08-26T08:14:08.013Z,84.23
2017-08-26T08:15:07.679Z,84.2
2017-08-26T08:16:07.986Z,84.2
2017-08-26T08:17:07.971Z,86
2017-08-26T08:18:07.662Z,86.39
2017-08-26T08:19:07.965Z,86.68
2017-08-26T08:20:07.950Z,85.71
2017-08-26T08:21:07.953Z,86
2017-08-26T08:22:07.944Z,85.9
2017-08-26T08:23:07.946Z,85.36
2017-08-26T08:24:07.931Z,86.49
2017-08-26T08:25:07.658Z,86.68
2017-08-26T08:26:07.926Z,87.12
2017-08-26T08:27:07.923Z,88.34
2017-08-26T08:28:07.904Z,89.47
2017-08-26T08:29:07.584Z,90.48
2017-08-26T08:30:07.901Z,90.3
2017-08-26T08:31:07.972Z,90.48
2017-08-26T08:32:07.561Z,91.07
2017-08-26T08:33:07.863Z,91.61
2017-08-26T08:34:07.861Z,91.8
2017-08-26T08:35:07.854Z,92.38
2017-08-26T08:36:07.531Z,92.19
2017-08-26T08:37:07.833Z,92.19
2017-08-26T08:38:07.843Z,91.51
2017-08-26T08:39:07.521Z,92.48
2017-08-26T08:40:07.491Z,92.86
2017-08-26T08:41:07.814Z,92.92
2017-08-26T08:42:07.801Z,93.4
2017-08-26T08:43:07.472Z,93.79
2017-08-26T08:44:07.460Z,94.76
2017-08-26T08:45:07.457Z,97.03
2017-08-26T08:46:07.452Z,98
2017-08-26T08:47:07.744Z,97.91
2017-08-26T08:48:07.831Z,98.93
2017-08-26T08:49:07.411Z,98.25
2017-08-26T08:50:07.721Z,98.44
2017-08-26T08:51:07.713Z,99.07
2017-08-26T08:52:07.380Z,99.55
2017-08-26T08:53:07.681Z,99.99
2017-08-26T08:54:07.676Z,99.99
2017-08-26T08:55:07.347Z,99.99
2017-08-26T08:56:07.340Z,99.6
2017-08-26T08:57:07.644Z,99.99
2017-08-26T08:58:07.647Z,99.99
2017-08-26T08:59:07.630Z,99.99
2017-08-26T09:00:07.614Z,99.99
2017-08-26T09:01:07.292Z,99.99
2017-08-26T09:02:07.599Z,99.99
2017-08-26T09:03:07.271Z,99.99
2017-08-26T09:04:07.570Z,99.99
2017-08-26T09:05:07.560Z,99.26
2017-08-26T09:06:07.570Z,99.41
2017-08-26T09:07:07.550Z,99.22
2017-08-26T09:08:07.540Z,99.17
2017-08-26T09:09:07.521Z,97.33
2017-08-26T09:10:07.204Z,96.31
2017-08-26T09:11:07.194Z,95.53
2017-08-26T09:12:07.490Z,95.24
2017-08-26T09:13:07.195Z,95.92
2017-08-26T09:14:07.478Z,94.8
2017-08-26T09:15:07.469Z,95.19
2017-08-26T09:16:07.469Z,95.29
2017-08-26T09:17:07.451Z,96.01
2017-08-26T09:18:07.440Z,96.69
2017-08-26T09:19:07.439Z,96.41
2017-08-26T09:20:07.120Z,95.92
2017-08-26T09:21:07.421Z,96.06
2017-08-26T09:22:07.411Z,94.8
2017-08-26T09:23:07.419Z,94.95
2017-08-26T09:24:07.397Z,94.17
2017-08-26T09:25:07.427Z,94.02
2017-08-26T09:26:07.385Z,93.73
2017-08-26T09:27:07.057Z,92.57
2017-08-26T09:28:07.360Z,92.41
2017-08-26T09:29:07.353Z,92.03
2017-08-26T09:30:07.362Z,92.66
2017-08-26T09:31:07.347Z,93.59
2017-08-26T09:32:07.330Z,93.88
2017-08-26T09:33:07.330Z,93.59
2017-08-26T09:34:07.326Z,93.98
2017-08-26T09:35:07.314Z,94.17
2017-08-26T09:36:07.300Z,94.21
2017-08-26T09:37:07.298Z,93.73
2017-08-26T09:38:07.290Z,92.51
2017-08-26T09:39:07.283Z,91.49
2017-08-26T09:40:07.279Z,90.56
2017-08-26T09:41:07.257Z,89.34
2017-08-26T09:42:07.258Z,89.29
2017-08-26T09:43:07.262Z,90.66
2017-08-26T09:44:07.244Z,90.66
2017-08-26T09:45:07.237Z,90.17
2017-08-26T09:46:07.228Z,89.14
2017-08-26T09:47:07.232Z,89.39
2017-08-26T09:48:06.907Z,88.76
2017-08-26T09:49:07.218Z,89.43
2017-08-26T09:50:07.199Z,89.29
2017-08-26T09:51:07.206Z,88.12
2017-08-26T09:52:07.183Z,87.67
2017-08-26T09:53:07.177Z,87.48
2017-08-26T09:54:07.187Z,87.82
2017-08-26T09:55:07.167Z,88.37
2017-08-26T09:56:07.161Z,88.37
2017-08-26T09:57:07.148Z,88.85
2017-08-26T09:58:07.151Z,89.24
2017-08-26T09:59:07.139Z,89.34
2017-08-26T10:00:07.129Z,88.9
2017-08-26T10:01:07.119Z,87.15
2017-08-26T10:02:07.125Z,85.33
2017-08-26T10:03:07.109Z,86.06
2017-08-26T10:04:07.106Z,86.74
2017-08-26T10:05:07.098Z,87.52
2017-08-26T10:06:06.781Z,86.74
2017-08-26T10:07:07.084Z,86.55
2017-08-26T10:08:07.089Z,86.16
2017-08-26T10:09:07.081Z,86.74
2017-08-26T10:10:07.067Z,86.16
2017-08-26T10:11:07.077Z,86.25
2017-08-26T10:12:07.055Z,86.06
2017-08-26T10:13:07.055Z,87.33
2017-08-26T10:14:07.036Z,86.7
2017-08-26T10:15:07.052Z,87.67
2017-08-26T10:16:07.029Z,88.55
2017-08-26T10:17:07.043Z,88.21
2017-08-26T10:18:06.696Z,88.12
2017-08-26T10:19:06.692Z,88.76
2017-08-26T10:20:07.020Z,89.63
2017-08-26T10:21:07.001Z,89.49
2017-08-26T10:22:06.978Z,89.1
2017-08-26T10:23:06.967Z,89.69
2017-08-26T10:24:06.649Z,90.08
2017-08-26T10:25:06.958Z,90.75
2017-08-26T10:26:06.953Z,90.85
2017-08-26T10:27:06.636Z,90.46
2017-08-26T10:28:06.628Z,90.75
2017-08-26T10:29:06.917Z,90.61
2017-08-26T10:30:06.930Z,92.27
2017-08-26T10:31:06.618Z,92.56
2017-08-26T10:32:06.898Z,90.91
2017-08-26T10:33:06.898Z,91.39
2017-08-26T10:34:06.909Z,92.36
2017-08-26T10:35:06.878Z,92.27
2017-08-26T10:36:06.868Z,92.32
2017-08-26T10:37:06.865Z,92.61
2017-08-26T10:38:06.849Z,92.46
2017-08-26T10:39:06.857Z,92.46
2017-08-26T10:40:06.856Z,92.36
2017-08-26T10:41:06.831Z,91.49
2017-08-26T10:42:06.818Z,91.58
2017-08-26T10:43:06.821Z,91.78
2017-08-26T10:44:06.815Z,91.58
2017-08-26T10:45:06.792Z,91.88
2017-08-26T10:46:06.817Z,91.88
2017-08-26T10:47:06.784Z,91.58
2017-08-26T10:48:06.778Z,92.17
2017-08-26T10:49:06.758Z,91.88
2017-08-26T10:50:06.571Z,91.58
2017-08-26T10:51:06.759Z,91.14
2017-08-26T10:52:06.786Z,91.14
2017-08-26T10:53:06.728Z,91.63
2017-08-26T10:54:06.774Z,90.36
2017-08-26T10:55:06.708Z,89.14
2017-08-26T10:56:06.719Z,89.19
2017-08-26T10:57:06.691Z,89.19
2017-08-26T10:58:06.689Z,89.77
2017-08-26T10:59:06.678Z,90.22
2017-08-26T11:00:06.682Z,90.7
2017-08-26T11:01:06.669Z,91.14
2017-08-26T11:02:06.653Z,91.24
2017-08-26T11:03:06.655Z,91.44
2017-08-26T11:04:06.641Z,90.99
2017-08-26T11:05:06.631Z,90.22
2017-08-26T11:06:06.629Z,90.31
2017-08-26T11:07:06.619Z,90.51
2017-08-26T11:08:06.299Z,91.53
2017-08-26T11:09:06.610Z,91.24
2017-08-26T11:10:06.590Z,91.44
2017-08-26T11:11:06.588Z,90.46
2017-08-26T11:12:06.569Z,90.66
2017-08-26T11:13:06.572Z,90.8
2017-08-26T11:14:06.252Z,89.43
2017-08-26T11:15:06.241Z,89.53
2017-08-26T11:16:06.546Z,89.73
2017-08-26T11:17:06.547Z,90.7
2017-08-26T11:18:06.538Z,90.41
2017-08-26T11:19:06.528Z,91.92
2017-08-26T11:20:06.510Z,92.85
2017-08-26T11:21:06.498Z,92.46
2017-08-26T11:22:06.501Z,92.9
2017-08-26T11:23:06.187Z,91.73
2017-08-26T11:24:06.170Z,92.11
2017-08-26T11:25:06.170Z,91.52
2017-08-26T11:26:06.463Z,89.72
2017-08-26T11:27:06.458Z,90.2
2017-08-26T11:28:06.467Z,89.37
2017-08-26T11:29:06.543Z,89.37
2017-08-26T11:30:06.440Z,88.4
2017-08-26T11:31:06.434Z,88.94
2017-08-26T11:32:06.421Z,90.11
2017-08-26T11:33:06.141Z,90.41
2017-08-26T11:34:06.088Z,90.8
2017-08-26T11:35:06.428Z,90.22
2017-08-26T11:36:06.071Z,90.02
2017-08-26T11:37:06.428Z,90.7
2017-08-26T11:38:06.369Z,91.05
2017-08-26T11:39:06.388Z,90.41
2017-08-26T11:40:06.041Z,90.99
2017-08-26T11:41:06.350Z,91.38
2017-08-26T11:42:06.026Z,91.87
2017-08-26T11:43:06.330Z,90.89
2017-08-26T11:44:06.347Z,90.51
2017-08-26T11:45:06.313Z,91.52
2017-08-26T11:46:06.006Z,91.82
2017-08-26T11:47:05.993Z,90.65
2017-08-26T11:48:06.291Z,90.55
2017-08-26T11:49:06.280Z,90.11
2017-08-26T11:50:06.280Z,89.43
2017-08-26T11:51:06.264Z,88.75
2017-08-26T11:52:06.257Z,89.67
2017-08-26T11:53:06.250Z,90.16
2017-08-26T11:54:05.937Z,90.36
2017-08-26T11:55:05.927Z,90.55
2017-08-26T11:56:06.238Z,90.51
2017-08-26T11:57:05.909Z,90.61
2017-08-26T11:58:05.908Z,91.28
2017-08-26T11:59:05.889Z,91.09
2017-08-26T12:00:06.215Z,91.04
2017-08-26T12:01:06.192Z,90.94
2017-08-26T12:02:06.181Z,91.97
2017-08-26T12:03:06.171Z,91.58
2017-08-26T12:04:06.163Z,91.58
2017-08-26T12:05:06.163Z,91.28
2017-08-26T12:06:05.891Z,92.26
2017-08-26T12:07:06.160Z,92.94
2017-08-26T12:08:06.277Z,94.11
2017-08-26T12:09:05.818Z,93.82
2017-08-26T12:10:06.118Z,92.36
2017-08-26T12:11:06.107Z,92.36
2017-08-26T12:12:06.231Z,92.07
2017-08-26T12:13:05.783Z,91.83
2017-08-26T12:14:05.780Z,92.31
2017-08-26T12:15:06.081Z,91.77
2017-08-26T12:16:06.152Z,91.58
2017-08-26T12:17:05.750Z,91.19
2017-08-26T12:18:06.079Z,91.48
2017-08-26T12:19:06.157Z,91.04
2017-08-26T12:20:06.038Z,91.52
2017-08-26T12:21:06.027Z,90.89
2017-08-26T12:22:06.017Z,91.09
2017-08-26T12:23:06.010Z,91.28
2017-08-26T12:24:06.021Z,91.19
2017-08-26T12:25:06.060Z,91.58
2017-08-26T12:26:06.000Z,91.58
2017-08-26T12:27:05.671Z,90.45
2017-08-26T12:28:05.675Z,91.48
2017-08-26T12:29:06.042Z,91.97
2017-08-26T12:30:05.955Z,91.87
2017-08-26T12:31:05.947Z,91.97
2017-08-26T12:32:05.627Z,90.89
2017-08-26T12:33:05.948Z,90.55
2017-08-26T12:34:05.927Z,90.75
2017-08-26T12:35:05.607Z,91.38
2017-08-26T12:36:05.910Z,91.48
2017-08-26T12:37:05.607Z,90.65
2017-08-26T12:38:05.888Z,91.04
2017-08-26T12:39:05.891Z,91.24
2017-08-26T12:40:05.565Z,91.24
2017-08-26T12:41:05.867Z,90.55
2017-08-26T12:42:05.857Z,89.81
2017-08-26T12:43:05.850Z,90.06
2017-08-26T12:44:05.849Z,90.16
2017-08-26T12:45:05.854Z,90.45
2017-08-26T12:46:05.515Z,91.09
2017-08-26T12:47:05.838Z,91.05
2017-08-26T12:48:05.811Z,91.67
2017-08-26T12:49:05.818Z,91.92
2017-08-26T12:50:05.499Z,92.21
2017-08-26T12:51:05.474Z,92.8
2017-08-26T12:52:05.779Z,93.48
2017-08-26T12:53:05.764Z,92.65
2017-08-26T12:54:05.763Z,92.46